Terminal Aerodrome Forecast
Issued by NWS

Home | Current Version | Previous Version | Text Only | Print | Product List | Glossary On
Versions: 1 2 3 4 5 6 7 8 9 10 11 12 13 14 15 16 17 18 19 20 21 22 23 24
000
FTUS42 KRAH 201134
TAFRWI
TAF
KRWI 201134Z 2012/2112 05007KT P6SM OVC120
     FM201400 03009KT P6SM -RA SCT018 OVC080
     FM201900 05006KT P6SM OVC070
     FM210300 04004KT P6SM FEW060=

USA.gov is the U.S. government's official web portal to all federal, state and local government web resources and services.